Time;durP1;ratioP1;P1;durP2;ratioP2;P2;SDS_P1;SDS_P2;PMS_P1;PMS_P2;Temp;Humidity;BMP_temperature;BMP_pressure;BME280_temperature;BME280_humidity;BME280_pressure;Samples;Min_cycle;Max_cycle;Signal;HPM_P1;HPM_P2
2022/10/20 00:01:08;;;;;;;4.10;2.80;;;14.30;99.90;;;;;;5040556;28;20051;-80
2022/10/20 00:03:34;;;;;;;3.00;2.33;;;14.30;99.90;;;;;;5005577;28;20049;-79
2022/10/20 00:06:08;;;;;;;2.85;2.20;;;14.30;99.90;;;;;;5023677;28;20717;-79
2022/10/20 00:08:35;;;;;;;3.22;2.20;;;14.20;99.90;;;;;;5039702;28;20507;-79
2022/10/20 00:11:02;;;;;;;3.05;2.45;;;14.30;99.90;;;;;;5004518;28;20135;-79
2022/10/20 00:13:28;;;;;;;3.35;2.42;;;14.30;99.90;;;;;;5022891;28;20143;-79
2022/10/20 00:15:55;;;;;;;4.00;2.70;;;14.30;99.90;;;;;;5037219;28;20304;-79
2022/10/20 00:18:22;;;;;;;2.92;2.50;;;14.30;99.90;;;;;;5039109;28;20049;-79
2022/10/20 00:20:49;;;;;;;3.20;2.38;;;14.30;99.90;;;;;;5006212;28;20056;-79
2022/10/20 00:23:16;;;;;;;2.83;2.50;;;14.30;99.90;;;;;;5004972;28;20060;-81
2022/10/20 00:25:43;;;;;;;3.30;2.80;;;14.30;99.90;;;;;;5026672;28;20048;-79
2022/10/20 00:28:10;;;;;;;4.68;2.70;;;14.30;99.90;;;;;;5010774;28;20110;-81
2022/10/20 00:30:37;;;;;;;4.15;3.10;;;14.30;99.90;;;;;;5025825;28;20435;-79
2022/10/20 00:33:05;;;;;;;4.35;3.13;;;14.30;99.90;;;;;;5009486;28;20053;-79
2022/10/20 00:35:32;;;;;;;4.30;2.97;;;14.30;99.90;;;;;;5025364;28;20128;-80
2022/10/20 00:37:58;;;;;;;3.13;2.47;;;14.30;99.90;;;;;;5012414;28;20299;-78
2022/10/20 00:40:25;;;;;;;2.97;2.67;;;14.30;99.90;;;;;;5013895;28;20049;-79
2022/10/20 00:42:52;;;;;;;3.38;2.60;;;14.30;99.90;;;;;;5013727;28;20059;-79
2022/10/20 00:45:20;;;;;;;3.47;2.80;;;14.30;99.90;;;;;;5028014;28;20087;-78
2022/10/20 00:47:47;;;;;;;3.10;2.58;;;14.30;99.90;;;;;;5013362;28;20107;-79
2022/10/20 00:50:17;;;;;;;3.45;2.28;;;14.40;99.90;;;;;;5045366;28;20507;-78
2022/10/20 00:52:45;;;;;;;3.72;2.70;;;14.40;99.90;;;;;;5043341;28;20045;-79
2022/10/20 00:55:15;;;;;;;5.22;3.58;;;14.40;99.90;;;;;;5045737;28;20052;-78
2022/10/20 00:57:42;;;;;;;4.28;3.60;;;14.40;99.90;;;;;;5030181;28;20071;-79
2022/10/20 01:00:10;;;;;;;3.28;2.88;;;14.40;99.90;;;;;;5029290;28;20053;-79
2022/10/20 01:02:36;;;;;;;4.10;3.05;;;14.40;99.90;;;;;;5023338;28;20057;-78
2022/10/20 01:05:04;;;;;;;2.97;2.40;;;14.40;99.90;;;;;;5025854;28;20048;-79
2022/10/20 01:07:31;;;;;;;2.70;2.38;;;14.40;99.90;;;;;;5011168;28;20048;-80
2022/10/20 01:09:58;;;;;;;3.20;2.58;;;14.50;99.90;;;;;;5013507;28;20103;-80
2022/10/20 01:12:44;;;;;;;3.00;2.22;;;14.50;99.90;;;;;;5025719;28;20045;-79
2022/10/20 01:15:24;;;;;;;3.25;2.45;;;14.50;99.90;;;;;;5026036;28;20046;-78
2022/10/20 01:18:07;;;;;;;3.10;2.28;;;14.60;99.90;;;;;;5043459;28;20053;-79
2022/10/20 01:20:59;;;;;;;3.17;2.15;;;14.60;99.90;;;;;;5029245;28;20048;-79
2022/10/20 01:23:30;;;;;;;3.00;2.35;;;14.60;99.90;;;;;;5045274;28;20083;-79
2022/10/20 01:26:35;;;;;;;3.25;2.40;;;14.50;99.90;;;;;;5029468;28;20519;-79
2022/10/20 01:29:28;;;;;;;2.63;2.10;;;14.50;99.90;;;;;;5025737;28;20041;-79
2022/10/20 01:32:30;;;;;;;3.47;2.08;;;14.60;99.90;;;;;;5023135;28;20045;-79
2022/10/20 01:34:59;;;;;;;2.88;2.10;;;14.60;99.90;;;;;;5029171;28;20064;-79
2022/10/20 01:37:35;;;;;;;3.25;2.50;;;14.60;99.90;;;;;;5027298;28;20056;-80
2022/10/20 01:40:19;;;;;;;3.22;2.30;;;14.70;99.90;;;;;;5033093;28;20057;-79
2022/10/20 01:42:46;;;;;;;3.22;2.55;;;14.70;99.90;;;;;;5028946;28;20056;-79
2022/10/20 01:45:13;;;;;;;3.42;2.78;;;14.60;99.90;;;;;;5029774;28;20053;-79
2022/10/20 01:47:40;;;;;;;3.38;2.65;;;14.70;99.90;;;;;;5028041;28;20037;-79
2022/10/20 01:50:07;;;;;;;4.47;2.92;;;14.70;99.90;;;;;;5028944;28;20056;-79
2022/10/20 01:52:34;;;;;;;3.30;2.72;;;14.70;99.90;;;;;;5028377;28;20093;-79
2022/10/20 01:55:01;;;;;;;2.75;2.42;;;14.70;99.90;;;;;;5044998;28;20049;-79
2022/10/20 01:57:38;;;;;;;3.13;2.28;;;14.70;99.90;;;;;;5012722;28;20495;-79
2022/10/20 02:00:14;;;;;;;3.15;2.30;;;14.80;99.90;;;;;;5045217;28;20653;-79
2022/10/20 02:03:00;;;;;;;3.35;2.58;;;14.80;99.90;;;;;;5044914;28;20084;-79
2022/10/20 02:05:43;;;;;;;2.75;2.20;;;14.90;99.90;;;;;;5045985;28;20559;-79
2022/10/20 02:08:18;;;;;;;2.78;2.13;;;14.90;99.90;;;;;;5041722;28;20058;-79
2022/10/20 02:10:49;;;;;;;3.00;2.40;;;14.90;99.90;;;;;;5058446;28;20049;-79
2022/10/20 02:13:17;;;;;;;3.20;2.25;;;14.90;99.90;;;;;;5012569;28;20071;-79
2022/10/20 02:15:46;;;;;;;2.03;1.80;;;15.00;99.90;;;;;;5027464;28;20087;-78
2022/10/20 02:18:15;;;;;;;2.47;2.00;;;15.00;99.90;;;;;;5028321;28;20045;-80
2022/10/20 02:20:43;;;;;;;3.22;2.63;;;15.00;99.90;;;;;;5044226;28;20048;-78
2022/10/20 02:23:10;;;;;;;3.63;2.65;;;15.00;99.90;;;;;;5024625;28;20061;-78
2022/10/20 02:25:36;;;;;;;3.28;2.22;;;15.00;99.90;;;;;;5028664;28;20049;-79
2022/10/20 02:28:03;;;;;;;2.90;2.25;;;15.00;99.90;;;;;;5028001;28;20045;-78
2022/10/20 02:30:30;;;;;;;2.55;2.17;;;15.00;99.90;;;;;;5025240;28;20448;-78
2022/10/20 02:32:57;;;;;;;3.67;2.65;;;15.00;99.90;;;;;;5028597;28;20056;-78
2022/10/20 02:35:29;;;;;;;2.97;2.40;;;15.10;99.90;;;;;;5043302;28;20053;-78
2022/10/20 02:37:56;;;;;;;3.67;2.15;;;15.20;99.90;;;;;;5028475;28;20052;-81
2022/10/20 02:40:23;;;;;;;3.53;2.65;;;15.20;99.90;;;;;;5025950;28;20041;-80
2022/10/20 02:42:50;;;;;;;3.13;2.80;;;15.30;99.90;;;;;;5026549;28;20409;-78
2022/10/20 02:45:16;;;;;;;3.15;2.70;;;15.30;99.90;;;;;;5010904;28;20087;-78
2022/10/20 02:47:43;;;;;;;3.30;2.67;;;15.30;99.90;;;;;;5009491;28;20065;-79
2022/10/20 02:50:10;;;;;;;2.95;2.60;;;15.30;99.90;;;;;;5043167;28;20128;-79
2022/10/20 02:52:37;;;;;;;3.45;2.72;;;15.40;99.90;;;;;;5011207;28;20049;-78
2022/10/20 02:55:04;;;;;;;3.70;2.45;;;15.40;99.90;;;;;;5040848;28;20428;-78
2022/10/20 02:57:31;;;;;;;3.97;3.00;;;15.40;99.90;;;;;;5027966;28;20064;-78
2022/10/20 02:59:58;;;;;;;3.70;2.72;;;15.40;99.90;;;;;;5027864;28;20451;-78
2022/10/20 03:02:25;;;;;;;3.35;2.50;;;15.40;99.90;;;;;;5026951;28;20220;-78
2022/10/20 03:04:52;;;;;;;3.13;2.83;;;15.40;99.90;;;;;;5010697;28;21481;-79
2022/10/20 03:07:19;;;;;;;3.22;2.63;;;15.40;99.90;;;;;;5026935;28;20364;-78
2022/10/20 03:09:45;;;;;;;3.60;2.55;;;15.40;99.90;;;;;;5011203;28;20052;-78
2022/10/20 03:12:12;;;;;;;3.05;2.72;;;15.40;99.90;;;;;;5027402;28;20053;-78
2022/10/20 03:14:41;;;;;;;3.03;2.55;;;15.50;99.90;;;;;;5026412;28;20046;-78
2022/10/20 03:17:08;;;;;;;3.40;2.78;;;15.50;99.90;;;;;;5043083;28;20624;-79
2022/10/20 03:19:35;;;;;;;3.85;2.90;;;15.50;99.90;;;;;;5008352;28;20382;-78
2022/10/20 03:22:01;;;;;;;3.13;2.83;;;15.50;99.90;;;;;;5043311;28;20052;-78
2022/10/20 03:24:28;;;;;;;3.05;2.75;;;15.50;99.90;;;;;;5027855;28;20049;-79
2022/10/20 03:26:55;;;;;;;3.45;2.45;;;15.50;99.90;;;;;;5027242;28;20397;-79
2022/10/20 03:29:22;;;;;;;3.47;2.58;;;15.50;99.90;;;;;;5027536;28;20613;-78
2022/10/20 03:31:48;;;;;;;3.03;2.45;;;15.60;99.90;;;;;;5009929;28;20040;-79
2022/10/20 03:34:20;;;;;;;2.58;2.17;;;15.60;99.90;;;;;;5011007;28;20064;-79
2022/10/20 03:36:47;;;;;;;3.05;2.53;;;15.70;99.90;;;;;;5008482;28;20064;-79
2022/10/20 03:39:14;;;;;;;2.92;2.58;;;15.60;99.90;;;;;;5011286;28;20524;-80
2022/10/20 03:41:40;;;;;;;2.67;2.35;;;15.70;99.90;;;;;;5027425;28;20044;-78
2022/10/20 03:44:09;;;;;;;2.40;2.15;;;15.70;99.90;;;;;;5042869;28;20053;-78
2022/10/20 03:46:37;;;;;;;2.75;2.33;;;15.70;99.90;;;;;;5041683;28;20064;-77
2022/10/20 03:49:03;;;;;;;3.50;2.38;;;15.80;99.90;;;;;;5044936;28;20053;-80
2022/10/20 03:51:31;;;;;;;3.25;2.72;;;15.70;99.90;;;;;;5026799;28;20041;-79
2022/10/20 03:53:57;;;;;;;3.17;2.25;;;15.70;99.90;;;;;;5045254;28;20091;-79
2022/10/20 03:56:24;;;;;;;3.58;2.65;;;15.70;99.90;;;;;;5044468;28;20132;-79
2022/10/20 03:58:51;;;;;;;3.00;2.55;;;15.70;99.90;;;;;;5045177;28;20045;-79
2022/10/20 04:01:22;;;;;;;3.70;2.60;;;15.70;99.90;;;;;;5049145;28;20053;-79
2022/10/20 04:03:49;;;;;;;4.10;2.60;;;15.80;99.90;;;;;;5029467;28;20053;-79
2022/10/20 04:06:16;;;;;;;3.67;2.85;;;15.70;99.90;;;;;;5030993;28;20068;-79
2022/10/20 04:08:42;;;;;;;4.20;3.03;;;15.70;99.90;;;;;;5030501;28;20061;-79
2022/10/20 04:11:09;;;;;;;3.83;2.33;;;15.80;99.90;;;;;;5030878;28;20128;-79
2022/10/20 04:13:36;;;;;;;2.83;2.35;;;15.80;99.90;;;;;;5048157;28;20088;-79
2022/10/20 04:16:03;;;;;;;3.05;2.75;;;15.80;99.90;;;;;;5014512;28;20045;-79
2022/10/20 04:18:30;;;;;;;3.40;2.80;;;15.80;99.90;;;;;;5013666;28;20601;-79
2022/10/20 04:20:57;;;;;;;2.72;2.45;;;15.80;99.90;;;;;;5030647;28;20053;-79
2022/10/20 04:23:24;;;;;;;2.80;2.50;;;15.80;99.90;;;;;;5029579;28;20049;-78
2022/10/20 04:25:50;;;;;;;2.72;2.03;;;15.90;99.90;;;;;;5047458;28;20045;-79
2022/10/20 04:28:18;;;;;;;2.47;2.05;;;15.80;99.90;;;;;;5014280;28;20599;-79
2022/10/20 04:30:45;;;;;;;2.85;2.22;;;15.90;99.90;;;;;;5014419;28;20448;-79
2022/10/20 04:33:12;;;;;;;2.40;2.00;;;15.90;99.90;;;;;;5030288;28;20067;-79
2022/10/20 04:35:39;;;;;;;3.33;2.50;;;15.90;99.90;;;;;;5030067;28;20041;-80
2022/10/20 04:38:05;;;;;;;2.60;2.25;;;15.90;99.90;;;;;;5027122;28;20451;-78
2022/10/20 04:40:32;;;;;;;2.22;2.00;;;15.90;99.90;;;;;;5031037;28;20045;-79
2022/10/20 04:42:59;;;;;;;2.63;2.10;;;15.90;99.90;;;;;;5014431;28;20053;-79
2022/10/20 04:45:27;;;;;;;2.22;2.03;;;15.90;99.90;;;;;;5030657;28;20059;-80
2022/10/20 04:47:56;;;;;;;3.15;2.60;;;16.00;99.90;;;;;;5046269;28;20037;-79
2022/10/20 04:50:23;;;;;;;2.75;2.45;;;16.00;99.90;;;;;;5059976;28;20045;-79
2022/10/20 04:52:50;;;;;;;3.30;2.60;;;16.00;99.90;;;;;;5045778;28;20044;-79
2022/10/20 04:55:17;;;;;;;3.08;2.67;;;16.00;99.90;;;;;;5043033;28;20049;-79
2022/10/20 04:57:44;;;;;;;2.75;2.33;;;16.00;99.90;;;;;;5010967;28;20098;-79
2022/10/20 05:00:13;;;;;;;3.38;2.70;;;16.00;99.90;;;;;;5025522;28;20047;-80
2022/10/20 05:02:40;;;;;;;3.95;2.67;;;16.00;99.90;;;;;;5045066;28;20052;-81
2022/10/20 05:05:07;;;;;;;3.22;2.63;;;16.00;99.90;;;;;;5044140;28;20908;-80
2022/10/20 05:07:34;;;;;;;3.78;2.72;;;16.00;99.90;;;;;;5022711;28;20607;-80
2022/10/20 05:10:02;;;;;;;3.35;3.05;;;16.10;99.90;;;;;;5026052;28;20081;-80
2022/10/20 05:12:29;;;;;;;3.15;2.30;;;16.10;99.90;;;;;;5048328;28;20044;-81
2022/10/20 05:14:57;;;;;;;3.00;2.55;;;16.10;99.90;;;;;;5041289;28;20140;-81
2022/10/20 05:17:23;;;;;;;4.13;2.70;;;16.10;99.90;;;;;;5055007;28;20052;-80
2022/10/20 05:19:50;;;;;;;2.55;2.30;;;16.10;99.90;;;;;;5044033;28;20049;-80
2022/10/20 05:22:17;;;;;;;2.60;2.35;;;16.10;99.90;;;;;;5008128;28;20053;-81
2022/10/20 05:24:44;;;;;;;3.63;3.05;;;16.10;99.90;;;;;;5044750;28;20749;-80
2022/10/20 05:27:11;;;;;;;2.45;2.15;;;16.10;99.90;;;;;;5032686;28;20121;-80
2022/10/20 05:29:38;;;;;;;3.22;2.65;;;16.10;99.90;;;;;;5042079;28;20064;-79
2022/10/20 05:32:05;;;;;;;2.90;2.58;;;16.10;99.90;;;;;;5044171;28;20425;-79
2022/10/20 05:34:31;;;;;;;3.08;2.75;;;16.10;99.90;;;;;;5024700;28;20052;-79
2022/10/20 05:36:58;;;;;;;2.13;1.88;;;16.10;99.90;;;;;;5060199;28;20079;-79
2022/10/20 05:39:25;;;;;;;2.65;2.40;;;16.10;99.90;;;;;;5051133;28;20052;-79
2022/10/20 05:41:52;;;;;;;3.10;2.50;;;16.00;99.90;;;;;;5041616;28;20091;-79
2022/10/20 05:44:19;;;;;;;2.90;2.60;;;16.00;99.90;;;;;;5005483;28;20503;-79
2022/10/20 05:46:45;;;;;;;2.95;2.65;;;16.00;99.90;;;;;;5003270;28;20053;-78
2022/10/20 05:49:14;;;;;;;2.65;2.13;;;16.00;99.90;;;;;;5024687;28;20156;-80
2022/10/20 05:51:41;;;;;;;2.75;2.28;;;16.00;99.90;;;;;;5043238;28;20041;-80
2022/10/20 05:54:09;;;;;;;3.35;2.95;;;16.00;99.90;;;;;;5020527;28;20053;-79
2022/10/20 05:56:36;;;;;;;3.50;2.95;;;16.00;99.90;;;;;;5023197;28;20044;-78
2022/10/20 05:59:03;;;;;;;3.20;2.75;;;16.00;99.90;;;;;;5023879;28;20056;-78
2022/10/20 06:01:52;;;;;;;3.92;3.40;;;16.00;99.90;;;;;;5006807;28;20041;-76
2022/10/20 06:04:26;;;;;;;3.83;2.97;;;16.00;99.90;;;;;;5025611;28;20053;-77
2022/10/20 06:06:53;;;;;;;4.70;3.08;;;16.00;99.90;;;;;;5012139;28;20531;-78
2022/10/20 06:09:20;;;;;;;3.72;3.33;;;16.00;99.90;;;;;;5019337;28;20075;-78
2022/10/20 06:11:47;;;;;;;4.10;3.17;;;16.00;99.90;;;;;;5004026;28;20053;-77
2022/10/20 06:14:14;;;;;;;3.13;2.78;;;15.90;99.90;;;;;;5018174;28;20398;-77
2022/10/20 06:16:41;;;;;;;3.65;2.97;;;16.00;99.90;;;;;;4996728;28;20049;-77
2022/10/20 06:19:08;;;;;;;3.28;2.78;;;16.00;99.90;;;;;;5042166;28;20427;-77
2022/10/20 06:21:35;;;;;;;3.58;2.67;;;16.00;99.90;;;;;;5051645;28;20122;-77
2022/10/20 06:24:03;;;;;;;2.85;2.50;;;16.00;99.90;;;;;;5003141;28;20396;-77
2022/10/20 06:26:32;;;;;;;2.95;2.50;;;16.00;99.90;;;;;;5020426;28;20049;-78
2022/10/20 06:28:58;;;;;;;3.45;2.30;;;16.00;99.90;;;;;;5030444;28;20052;-78
2022/10/20 06:31:37;;;;;;;3.25;2.40;;;16.00;99.90;;;;;;5036860;28;20048;-76
2022/10/20 06:34:05;;;;;;;3.28;2.35;;;16.10;99.90;;;;;;5010756;28;20057;-78
2022/10/20 06:36:36;;;;;;;3.13;2.22;;;16.10;99.90;;;;;;5035439;28;20055;-77
2022/10/20 06:39:03;;;;;;;2.58;2.13;;;16.10;99.90;;;;;;5037722;28;20048;-77
2022/10/20 06:41:30;;;;;;;2.35;1.92;;;16.10;99.90;;;;;;5020988;28;20307;-77
2022/10/20 06:43:57;;;;;;;2.60;2.05;;;16.10;99.90;;;;;;5017820;28;20107;-77
2022/10/20 06:46:29;;;;;;;3.30;2.60;;;16.20;99.90;;;;;;4985896;28;20080;-78
2022/10/20 06:49:02;;;;;;;3.38;2.47;;;16.20;99.90;;;;;;5025868;28;20297;-77
2022/10/20 06:51:29;;;;;;;3.33;2.47;;;16.10;99.90;;;;;;5021343;28;20045;-77
2022/10/20 06:53:56;;;;;;;3.05;2.30;;;16.10;99.90;;;;;;5018129;28;20063;-77
2022/10/20 06:56:24;;;;;;;3.03;1.98;;;16.20;99.90;;;;;;5018545;28;20042;-78
2022/10/20 06:58:52;;;;;;;2.65;2.40;;;16.20;99.90;;;;;;4992704;28;20078;-77
2022/10/20 07:01:23;;;;;;;3.88;2.05;;;16.20;99.90;;;;;;5037318;28;20495;-77
2022/10/20 07:03:52;;;;;;;3.30;2.38;;;16.20;99.90;;;;;;5000356;28;20115;-77
2022/10/20 07:06:20;;;;;;;3.15;2.42;;;16.20;99.90;;;;;;5001516;28;20140;-78
2022/10/20 07:08:47;;;;;;;2.80;2.22;;;16.20;99.90;;;;;;4991573;28;20503;-78
2022/10/20 07:11:18;;;;;;;2.60;2.35;;;16.20;99.90;;;;;;5021985;28;20084;-80
2022/10/20 07:13:45;;;;;;;2.83;2.40;;;16.20;99.90;;;;;;5034657;28;20098;-79
2022/10/20 07:16:13;;;;;;;3.28;2.22;;;16.20;99.90;;;;;;5001686;28;20160;-79
2022/10/20 07:18:40;;;;;;;2.50;1.83;;;16.20;99.90;;;;;;5022380;28;20107;-79
2022/10/20 07:21:10;;;;;;;2.20;1.95;;;16.20;99.90;;;;;;5037049;28;20524;-79
2022/10/20 07:23:37;;;;;;;2.58;2.08;;;16.10;99.90;;;;;;5017676;28;20057;-79
2022/10/20 07:26:12;;;;;;;2.42;2.17;;;16.20;99.90;;;;;;4985676;28;20440;-78
2022/10/20 07:28:41;;;;;;;2.25;1.88;;;16.20;99.90;;;;;;5007983;28;20057;-78
2022/10/20 07:31:13;;;;;;;2.58;2.10;;;16.20;99.90;;;;;;5004681;28;20057;-79
2022/10/20 07:33:39;;;;;;;2.47;1.60;;;16.20;99.90;;;;;;5032710;28;20661;-79
2022/10/20 07:36:11;;;;;;;2.60;2.15;;;16.20;99.90;;;;;;4985087;28;20049;-79
2022/10/20 07:38:38;;;;;;;2.60;2.08;;;16.20;99.90;;;;;;5006302;28;20056;-79
2022/10/20 07:41:05;;;;;;;2.72;2.28;;;16.30;99.90;;;;;;5021206;28;20053;-78
2022/10/20 07:43:32;;;;;;;2.55;2.08;;;16.30;99.90;;;;;;5016989;28;20497;-78
2022/10/20 07:45:59;;;;;;;2.10;1.80;;;16.30;99.90;;;;;;5000905;28;20063;-79
2022/10/20 07:48:26;;;;;;;1.98;1.60;;;16.40;99.90;;;;;;5020486;28;20060;-78
2022/10/20 07:50:53;;;;;;;2.63;2.30;;;16.40;99.90;;;;;;5039175;28;20049;-79
2022/10/20 07:53:21;;;;;;;2.63;1.70;;;16.40;99.90;;;;;;5035113;28;20049;-79
2022/10/20 07:55:48;;;;;;;2.78;2.00;;;16.40;99.90;;;;;;5021424;28;20510;-80
2022/10/20 07:58:15;;;;;;;2.67;2.15;;;16.40;99.90;;;;;;5021330;28;20170;-79
2022/10/20 08:00:42;;;;;;;2.88;2.58;;;16.40;99.90;;;;;;5037435;28;20460;-79
2022/10/20 08:03:09;;;;;;;2.10;1.90;;;16.40;99.90;;;;;;5017014;28;20147;-79
2022/10/20 08:05:36;;;;;;;2.88;2.25;;;16.40;99.90;;;;;;5003429;28;20140;-79
2022/10/20 08:08:03;;;;;;;2.53;2.10;;;16.50;99.90;;;;;;5038320;28;20100;-80
2022/10/20 08:10:30;;;;;;;2.10;1.70;;;16.50;99.90;;;;;;5020569;28;20057;-79
2022/10/20 08:12:56;;;;;;;2.70;1.90;;;16.50;99.90;;;;;;5001258;28;20049;-79
2022/10/20 08:15:24;;;;;;;2.17;1.95;;;16.50;99.90;;;;;;5019295;28;20479;-79
2022/10/20 08:17:51;;;;;;;2.38;1.88;;;16.50;99.90;;;;;;5020097;28;20052;-79
2022/10/20 08:20:19;;;;;;;2.45;1.83;;;16.50;99.90;;;;;;5037959;28;20153;-79
2022/10/20 08:22:53;;;;;;;2.13;1.92;;;16.60;99.90;;;;;;5032588;28;20045;-80
2022/10/20 08:25:19;;;;;;;2.25;1.90;;;16.60;99.90;;;;;;5002277;28;20068;-79
2022/10/20 08:27:46;;;;;;;3.08;2.05;;;16.60;99.90;;;;;;5020506;28;20501;-79
2022/10/20 08:30:13;;;;;;;2.60;1.85;;;16.60;99.90;;;;;;5000492;28;20046;-79
2022/10/20 08:32:55;;;;;;;2.53;1.80;;;16.70;99.90;;;;;;5011097;28;20045;-79
2022/10/20 08:35:22;;;;;;;2.15;1.80;;;16.70;99.90;;;;;;5020019;28;20076;-79
2022/10/20 08:37:49;;;;;;;2.17;1.65;;;16.70;99.90;;;;;;5018998;28;20502;-79
2022/10/20 08:40:21;;;;;;;2.58;2.22;;;16.70;99.90;;;;;;5007419;28;20052;-80
2022/10/20 08:42:48;;;;;;;2.58;1.83;;;16.70;99.90;;;;;;5003464;28;20038;-80
2022/10/20 08:45:17;;;;;;;2.83;2.13;;;16.80;99.90;;;;;;5008184;28;20045;-80
2022/10/20 08:47:44;;;;;;;2.42;1.88;;;16.80;99.90;;;;;;5038987;28;20045;-78
2022/10/20 08:50:12;;;;;;;2.85;2.05;;;16.90;99.90;;;;;;5001359;28;20376;-79
2022/10/20 08:52:40;;;;;;;3.13;2.45;;;16.90;99.90;;;;;;5022603;28;20048;-79
2022/10/20 08:55:07;;;;;;;2.60;2.35;;;16.90;99.90;;;;;;5003213;28;20076;-78
2022/10/20 08:57:34;;;;;;;2.53;2.13;;;16.90;99.90;;;;;;5008934;28;20041;-78
2022/10/20 09:00:12;;;;;;;2.80;2.20;;;16.90;99.90;;;;;;5021799;28;20087;-79
2022/10/20 09:02:39;;;;;;;2.30;2.00;;;16.90;99.90;;;;;;5037331;28;20072;-79
2022/10/20 09:05:06;;;;;;;2.28;1.73;;;16.90;99.90;;;;;;5022472;28;20049;-78
2022/10/20 09:07:35;;;;;;;2.85;1.65;;;16.90;99.90;;;;;;5019385;28;20592;-79
2022/10/20 09:10:26;;;;;;;2.28;1.85;;;16.90;99.90;;;;;;5003869;28;20081;-81
2022/10/20 09:12:53;;;;;;;1.65;1.55;;;16.90;99.90;;;;;;5027176;28;20156;-79
2022/10/20 09:15:20;;;;;;;2.10;1.63;;;16.90;99.90;;;;;;5041160;28;20386;-78
2022/10/20 09:18:00;;;;;;;1.88;1.65;;;17.00;99.90;;;;;;5025873;28;20145;-78
2022/10/20 09:20:53;;;;;;;1.90;1.67;;;16.90;99.90;;;;;;5030916;28;20053;-78
2022/10/20 09:23:38;;;;;;;2.70;2.03;;;16.90;99.90;;;;;;5014794;28;20071;-77
2022/10/20 09:26:15;;;;;;;2.10;1.75;;;16.90;99.90;;;;;;5050533;28;20044;-76
2022/10/20 09:29:10;;;;;;;2.13;1.80;;;16.90;99.90;;;;;;5016528;28;20051;-78
2022/10/20 09:31:48;;;;;;;2.17;1.73;;;16.90;99.90;;;;;;5011795;28;20054;-78
2022/10/20 09:34:25;;;;;;;2.30;1.70;;;16.90;99.90;;;;;;5023619;28;20348;-77
2022/10/20 09:36:56;;;;;;;2.22;1.80;;;16.90;99.90;;;;;;5042719;28;20094;-77
2022/10/20 09:39:27;;;;;;;2.15;1.70;;;17.00;99.90;;;;;;5022008;28;20465;-77
2022/10/20 09:42:06;;;;;;;2.70;1.85;;;16.90;99.90;;;;;;5003317;28;20059;-78
2022/10/20 09:44:34;;;;;;;1.42;1.30;;;17.00;99.90;;;;;;5022843;28;20071;-78
2022/10/20 09:47:01;;;;;;;2.45;1.50;;;17.00;99.90;;;;;;5018660;28;20058;-80
2022/10/20 09:49:31;;;;;;;2.08;1.63;;;17.10;99.90;;;;;;5029384;28;20434;-80
2022/10/20 09:51:58;;;;;;;1.92;1.58;;;17.20;99.90;;;;;;5020908;28;20056;-78
2022/10/20 09:54:25;;;;;;;1.88;1.55;;;17.30;99.90;;;;;;5020123;28;20071;-79
2022/10/20 09:56:52;;;;;;;1.52;1.25;;;17.30;99.90;;;;;;5019133;28;20053;-79
2022/10/20 09:59:25;;;;;;;1.98;1.50;;;17.30;99.90;;;;;;5056588;28;20120;-79
2022/10/20 10:01:52;;;;;;;;;;;17.30;99.90;;;;;;5044661;28;20051;-80
2022/10/20 10:04:35;;;;;;;2.13;1.40;;;17.30;99.90;;;;;;5040798;28;19927;-82
2022/10/20 10:07:03;;;;;;;1.10;1.00;;;17.30;99.90;;;;;;5028406;28;20473;-78
2022/10/20 10:09:53;;;;;;;1.55;1.17;;;17.30;99.90;;;;;;5005021;28;20045;-79
2022/10/20 10:12:19;;;;;;;1.65;1.30;;;17.20;99.90;;;;;;5032561;28;20068;-78
2022/10/20 10:14:51;;;;;;;1.30;1.20;;;17.20;99.90;;;;;;5025894;28;20133;-79
2022/10/20 10:17:40;;;;;;;1.70;1.30;;;17.10;99.90;;;;;;5020563;28;20048;-80
2022/10/20 10:20:10;;;;;;;1.55;1.15;;;17.00;99.90;;;;;;5038434;28;20072;-78
2022/10/20 10:22:40;;;;;;;1.60;1.00;;;16.80;99.90;;;;;;5044480;28;20052;-81
2022/10/20 10:25:13;;;;;;;1.23;1.02;;;16.80;99.90;;;;;;5025570;28;20054;-81
2022/10/20 10:27:40;;;;;;;1.10;0.90;;;16.70;99.90;;;;;;5012049;28;20053;-80
2022/10/20 10:30:28;;;;;;;1.20;0.90;;;16.70;99.90;;;;;;5008595;28;20045;-81
2022/10/20 10:32:55;;;;;;;1.20;0.93;;;16.70;99.90;;;;;;5035030;28;20595;-80
2022/10/20 10:35:39;;;;;;;1.25;0.90;;;16.80;99.90;;;;;;5024341;28;20404;-79
2022/10/20 10:38:07;;;;;;;0.93;0.70;;;16.80;99.90;;;;;;5003378;28;20053;-79
2022/10/20 10:40:38;;;;;;;1.10;0.90;;;16.80;99.90;;;;;;5037640;28;20045;-79
2022/10/20 10:43:36;;;;;;;1.55;0.98;;;16.80;99.90;;;;;;5049120;28;20045;-79
2022/10/20 10:46:15;;;;;;;1.00;0.90;;;16.80;99.90;;;;;;4986468;28;20085;-80
2022/10/20 10:48:45;;;;;;;1.60;1.05;;;17.00;99.90;;;;;;5054070;28;20048;-78
2022/10/20 10:51:18;;;;;;;1.10;0.80;;;17.30;99.90;;;;;;5047405;28;20049;-77
2022/10/20 10:54:03;;;;;;;1.55;1.10;;;17.60;99.90;;;;;;5048574;28;20049;-78
2022/10/20 10:57:04;;;;;;;0.93;0.90;;;17.90;99.90;;;;;;5040271;28;20489;-77
2022/10/20 10:59:36;;;;;;;1.05;0.80;;;18.10;99.90;;;;;;4999305;28;20053;-77
2022/10/20 11:02:42;;;;;;;1.13;0.80;;;18.30;99.90;;;;;;5013892;28;20764;-76
2022/10/20 11:05:23;;;;;;;1.73;1.17;;;18.40;99.90;;;;;;5004871;28;20768;-77
2022/10/20 11:08:14;;;;;;;1.38;1.00;;;18.40;99.90;;;;;;5019102;28;20044;-77
2022/10/20 11:10:57;;;;;;;1.38;1.05;;;18.50;99.90;;;;;;5020861;28;20395;-76
2022/10/20 11:13:31;;;;;;;0.80;0.70;;;18.60;99.90;;;;;;5020813;28;20045;-76
2022/10/20 11:16:13;;;;;;;0.85;0.73;;;18.80;99.90;;;;;;5023618;28;20452;-76
2022/10/20 11:19:01;;;;;;;1.45;1.00;;;19.00;99.90;;;;;;5053630;28;20046;-76
2022/10/20 11:21:46;;;;;;;0.95;0.88;;;19.00;99.90;;;;;;5039871;28;20135;-76
2022/10/20 11:24:26;;;;;;;1.45;1.00;;;18.90;99.90;;;;;;5017197;28;20061;-76
2022/10/20 11:27:02;;;;;;;1.00;0.90;;;18.90;99.90;;;;;;5017270;28;20057;-76
2022/10/20 11:29:30;;;;;;;1.25;1.00;;;18.80;99.90;;;;;;5019111;28;20488;-76
2022/10/20 11:32:07;;;;;;;0.90;0.65;;;18.80;99.90;;;;;;5018091;28;20516;-76
2022/10/20 11:34:57;;;;;;;1.25;0.90;;;18.80;99.90;;;;;;5017931;28;20513;-76
2022/10/20 11:37:26;;;;;;;1.00;0.70;;;18.80;99.90;;;;;;5043023;28;20311;-76
2022/10/20 11:39:58;;;;;;;0.70;0.70;;;18.90;99.90;;;;;;5032457;28;20067;-76
2022/10/20 11:42:42;;;;;;;0.75;0.70;;;19.00;99.90;;;;;;5035870;28;20049;-76
2022/10/20 11:45:49;;;;;;;1.48;1.02;;;18.90;99.90;;;;;;5052580;28;20052;-75
2022/10/20 11:48:21;;;;;;;1.55;0.93;;;18.90;99.90;;;;;;5034005;28;20049;-76
2022/10/20 11:50:55;;;;;;;0.90;0.73;;;18.90;99.90;;;;;;5037708;28;20140;-76
2022/10/20 11:53:24;;;;;;;1.25;0.80;;;18.90;99.90;;;;;;5003812;28;20298;-75
2022/10/20 11:55:54;;;;;;;1.73;1.00;;;18.80;99.90;;;;;;5035646;28;20097;-76
2022/10/20 11:58:41;;;;;;;1.55;1.02;;;18.70;99.90;;;;;;5037127;28;20469;-77
2022/10/20 12:01:54;;;;;;;0.95;0.60;;;18.70;99.90;;;;;;5031163;28;20456;-77
2022/10/20 12:04:44;;;;;;;0.82;0.75;;;18.70;99.90;;;;;;4999501;28;20719;-76
2022/10/20 12:07:29;;;;;;;0.75;0.60;;;18.70;99.90;;;;;;5030872;28;20421;-77
2022/10/20 12:10:20;;;;;;;1.20;0.82;;;18.70;99.90;;;;;;5037054;28;20408;-77
2022/10/20 12:12:56;;;;;;;1.08;0.95;;;18.70;99.90;;;;;;5037584;28;20421;-78
2022/10/20 12:15:24;;;;;;;0.98;0.70;;;18.60;99.90;;;;;;5025856;28;20040;-79
2022/10/20 12:17:51;;;;;;;0.95;0.73;;;18.60;99.90;;;;;;5009036;28;20053;-79
2022/10/20 12:20:21;;;;;;;1.00;0.90;;;18.50;99.90;;;;;;5048847;28;20123;-79
2022/10/20 12:22:58;;;;;;;1.27;0.80;;;18.40;99.90;;;;;;5042585;28;20056;-80
2022/10/20 12:25:25;;;;;;;1.20;0.95;;;18.30;99.90;;;;;;5020934;28;20056;-80
2022/10/20 12:28:20;;;;;;;1.02;0.70;;;18.20;99.90;;;;;;5043109;28;20132;-80
2022/10/20 12:31:00;;;;;;;2.05;1.30;;;18.10;99.90;;;;;;5039768;28;20049;-81
2022/10/20 12:33:48;;;;;;;1.80;1.15;;;17.90;99.90;;;;;;5014956;28;20432;-82
2022/10/20 12:36:15;;;;;;;1.58;1.17;;;17.90;99.90;;;;;;5053232;28;20134;-81
2022/10/20 12:38:43;;;;;;;1.38;0.88;;;17.90;99.90;;;;;;5043289;28;20389;-82
2022/10/20 12:41:11;;;;;;;1.05;0.90;;;18.00;99.90;;;;;;5040880;28;20161;-83
2022/10/20 12:43:47;;;;;;;1.83;0.90;;;18.00;99.90;;;;;;5020843;28;20044;-82
2022/10/20 12:46:30;;;;;;;1.33;0.88;;;18.10;99.90;;;;;;5040898;28;20263;-82
2022/10/20 12:49:00;;;;;;;1.35;0.95;;;18.10;99.90;;;;;;5009213;28;20410;-81
2022/10/20 12:51:46;;;;;;;1.40;0.90;;;18.20;99.90;;;;;;5008536;28;20488;-81
2022/10/20 12:54:21;;;;;;;1.90;0.70;;;18.40;99.90;;;;;;5004954;28;20061;-82
2022/10/20 12:56:48;;;;;;;0.85;0.70;;;18.80;99.90;;;;;;5026136;28;20212;-81
2022/10/20 12:59:31;;;;;;;1.15;0.80;;;19.30;99.90;;;;;;5002110;28;20053;-81
2022/10/20 13:02:07;;;;;;;0.77;0.63;;;19.70;99.90;;;;;;5012272;28;20061;-83
2022/10/20 13:05:02;;;;;;;0.45;0.45;;;20.30;99.90;;;;;;5029745;28;20053;-82
2022/10/20 13:07:47;;;;;;;0.70;0.50;;;20.60;99.90;;;;;;5033308;28;20057;-81
2022/10/20 13:10:27;;;;;;;0.77;0.50;;;20.50;99.90;;;;;;5055933;28;20045;-82